sensor_id;sensor_type;location;lat;lon;timestamp;pressure;altitude;pressure_sealevel;temperature;humidity
67038;BME280;53940;53.204;6.590;2024-02-26T00:00:47;100233.97;;;22.19;50.61
67038;BME280;53940;53.204;6.590;2024-02-26T00:03:47;100228.59;;;22.19;50.80
67038;BME280;53940;53.204;6.590;2024-02-26T00:06:47;100229.59;;;22.18;50.72
67038;BME280;53940;53.204;6.590;2024-02-26T00:09:50;100229.59;;;22.18;50.94
67038;BME280;53940;53.204;6.590;2024-02-26T00:12:50;100232.28;;;22.18;50.84
67038;BME280;53940;53.204;6.590;2024-02-26T00:15:51;100230.44;;;22.19;50.81
67038;BME280;53940;53.204;6.590;2024-02-26T00:18:51;100220.53;;;22.19;50.89
67038;BME280;53940;53.204;6.590;2024-02-26T00:21:51;100223.22;;;22.19;50.78
67038;BME280;53940;53.204;6.590;2024-02-26T00:24:53;100229.44;;;22.20;50.87
67038;BME280;53940;53.204;6.590;2024-02-26T00:27:54;100227.63;;;22.20;50.89
67038;BME280;53940;53.204;6.590;2024-02-26T00:30:54;100242.72;;;22.21;51.01
67038;BME280;53940;53.204;6.590;2024-02-26T00:33:56;100241.03;;;22.20;50.99
67038;BME280;53940;53.204;6.590;2024-02-26T00:36:56;100231.97;;;22.21;50.91
67038;BME280;53940;53.204;6.590;2024-02-26T00:39:57;100233.66;;;22.23;50.81
67038;BME280;53940;53.204;6.590;2024-02-26T00:42:57;100231.81;;;22.23;50.89
67038;BME280;53940;53.204;6.590;2024-02-26T00:45:57;100244.38;;;22.23;50.72
67038;BME280;53940;53.204;6.590;2024-02-26T00:48:58;100246.06;;;22.24;50.54
67038;BME280;53940;53.204;6.590;2024-02-26T00:51:58;100243.22;;;22.25;50.77
67038;BME280;53940;53.204;6.590;2024-02-26T00:54:58;100233.28;;;22.26;50.55
67038;BME280;53940;53.204;6.590;2024-02-26T00:57:59;100235.00;;;22.27;50.71
67038;BME280;53940;53.204;6.590;2024-02-26T01:00:59;100241.34;;;22.26;50.66
67038;BME280;53940;53.204;6.590;2024-02-26T01:03:59;100245.75;;;22.27;50.55
67038;BME280;53940;53.204;6.590;2024-02-26T01:07:00;100242.03;;;22.28;50.65
67038;BME280;53940;53.204;6.590;2024-02-26T01:10:00;100250.09;;;22.28;50.59
67038;BME280;53940;53.204;6.590;2024-02-26T01:13:01;100249.09;;;22.29;50.51
67038;BME280;53940;53.204;6.590;2024-02-26T01:16:01;100245.75;;;22.27;50.67
67038;BME280;53940;53.204;6.590;2024-02-26T01:19:02;100244.72;;;22.28;50.66
67038;BME280;53940;53.204;6.590;2024-02-26T01:22:03;100259.81;;;22.29;50.74
67038;BME280;53940;53.204;6.590;2024-02-26T01:25:03;100266.03;;;22.29;50.57
67038;BME280;53940;53.204;6.590;2024-02-26T01:28:04;100268.88;;;22.28;50.51
67038;BME280;53940;53.204;6.590;2024-02-26T01:31:05;100271.56;;;22.28;50.63
67038;BME280;53940;53.204;6.590;2024-02-26T01:34:07;100259.81;;;22.29;50.54
67038;BME280;53940;53.204;6.590;2024-02-26T01:37:08;100264.34;;;22.28;50.55
67038;BME280;53940;53.204;6.590;2024-02-26T01:40:09;100265.34;;;22.27;50.68
67038;BME280;53940;53.204;6.590;2024-02-26T01:43:09;100268.88;;;22.28;50.63
67038;BME280;53940;53.204;6.590;2024-02-26T01:46:12;100274.25;;;22.28;50.73
67038;BME280;53940;53.204;6.590;2024-02-26T01:49:14;100273.41;;;22.27;50.59
67038;BME280;53940;53.204;6.590;2024-02-26T01:52:16;100274.25;;;22.28;50.35
67038;BME280;53940;53.204;6.590;2024-02-26T01:55:18;100277.94;;;22.27;50.25
67038;BME280;53940;53.204;6.590;2024-02-26T01:58:20;100276.25;;;22.26;50.29
67038;BME280;53940;53.204;6.590;2024-02-26T02:01:22;100276.25;;;22.26;50.24
67038;BME280;53940;53.204;6.590;2024-02-26T02:04:24;100274.56;;;22.25;50.40
67038;BME280;53940;53.204;6.590;2024-02-26T02:07:25;100270.22;;;22.24;50.50
67038;BME280;53940;53.204;6.590;2024-02-26T02:10:26;100277.25;;;22.25;50.35
67038;BME280;53940;53.204;6.590;2024-02-26T02:13:27;100272.91;;;22.24;50.41
67038;BME280;53940;53.204;6.590;2024-02-26T02:16:27;100274.75;;;22.23;50.45
67038;BME280;53940;53.204;6.590;2024-02-26T02:19:27;100268.38;;;22.24;50.43
67038;BME280;53940;53.204;6.590;2024-02-26T02:22:28;100277.44;;;22.23;50.41
67038;BME280;53940;53.204;6.590;2024-02-26T02:25:28;100276.59;;;22.23;50.46
67038;BME280;53940;53.204;6.590;2024-02-26T02:28:28;100281.94;;;22.23;50.52
67038;BME280;53940;53.204;6.590;2024-02-26T02:31:29;100275.72;;;22.22;50.55
67038;BME280;53940;53.204;6.590;2024-02-26T02:34:30;100273.25;;;22.20;50.36
67038;BME280;53940;53.204;6.590;2024-02-26T02:37:31;100277.75;;;22.20;50.29
67038;BME280;53940;53.204;6.590;2024-02-26T02:40:31;100280.28;;;22.21;50.29
67038;BME280;53940;53.204;6.590;2024-02-26T02:43:32;100282.25;;;22.19;50.35
67038;BME280;53940;53.204;6.590;2024-02-26T02:46:32;100287.63;;;22.19;50.33
67038;BME280;53940;53.204;6.590;2024-02-26T02:49:33;100293.00;;;22.19;50.19
67038;BME280;53940;53.204;6.590;2024-02-26T02:52:34;100295.88;;;22.18;50.25
67038;BME280;53940;53.204;6.590;2024-02-26T02:55:34;100301.06;;;22.19;50.43
67038;BME280;53940;53.204;6.590;2024-02-26T02:58:34;100303.06;;;22.17;50.26
67038;BME280;53940;53.204;6.590;2024-02-26T03:01:35;100307.44;;;22.18;50.10
67038;BME280;53940;53.204;6.590;2024-02-26T03:04:35;100303.91;;;22.18;50.04
67038;BME280;53940;53.204;6.590;2024-02-26T03:07:35;100316.50;;;22.17;50.06
67038;BME280;53940;53.204;6.590;2024-02-26T03:10:36;100313.81;;;22.17;50.26
67038;BME280;53940;53.204;6.590;2024-02-26T03:13:36;100318.16;;;22.18;50.15
67038;BME280;53940;53.204;6.590;2024-02-26T03:16:36;100322.88;;;22.16;50.24
67038;BME280;53940;53.204;6.590;2024-02-26T03:19:37;100325.53;;;22.16;50.39
67038;BME280;53940;53.204;6.590;2024-02-26T03:22:38;100336.28;;;22.16;50.17
67038;BME280;53940;53.204;6.590;2024-02-26T03:25:39;100347.00;;;22.16;50.35
67038;BME280;53940;53.204;6.590;2024-02-26T03:28:40;100342.50;;;22.17;50.45
67038;BME280;53940;53.204;6.590;2024-02-26T03:31:41;100351.53;;;22.16;50.27
67038;BME280;53940;53.204;6.590;2024-02-26T03:34:41;100345.34;;;22.15;50.34
67038;BME280;53940;53.204;6.590;2024-02-26T03:37:41;100356.06;;;22.15;50.39
67038;BME280;53940;53.204;6.590;2024-02-26T03:40:42;100351.72;;;22.14;50.25
67038;BME280;53940;53.204;6.590;2024-02-26T03:43:42;100356.06;;;22.15;50.91
67038;BME280;53940;53.204;6.590;2024-02-26T03:46:43;100359.75;;;22.14;50.51
67038;BME280;53940;53.204;6.590;2024-02-26T03:49:43;100361.44;;;22.15;50.18
67038;BME280;53940;53.204;6.590;2024-02-26T03:52:44;100365.97;;;22.15;50.14
67038;BME280;53940;53.204;6.590;2024-02-26T03:55:44;100363.41;;;22.13;50.28
67038;BME280;53940;53.204;6.590;2024-02-26T03:58:44;100367.13;;;22.12;50.23
67038;BME280;53940;53.204;6.590;2024-02-26T04:01:45;100371.47;;;22.13;50.54
67038;BME280;53940;53.204;6.590;2024-02-26T04:04:47;100377.84;;;22.12;50.58
67038;BME280;53940;53.204;6.590;2024-02-26T04:07:47;100373.34;;;22.13;50.42
67038;BME280;53940;53.204;6.590;2024-02-26T04:10:48;100383.22;;;22.12;50.59
67038;BME280;53940;53.204;6.590;2024-02-26T04:13:48;100385.06;;;22.12;50.50
67038;BME280;53940;53.204;6.590;2024-02-26T04:16:51;100386.09;;;22.11;50.78
67038;BME280;53940;53.204;6.590;2024-02-26T04:19:54;100379.84;;;22.10;50.46
67038;BME280;53940;53.204;6.590;2024-02-26T04:22:54;100385.22;;;22.10;50.52
67038;BME280;53940;53.204;6.590;2024-02-26T04:25:54;100395.97;;;22.10;50.88
67038;BME280;53940;53.204;6.590;2024-02-26T04:28:55;100394.28;;;22.09;50.88
67038;BME280;53940;53.204;6.590;2024-02-26T04:31:55;100394.28;;;22.09;50.60
67038;BME280;53940;53.204;6.590;2024-02-26T04:34:55;100395.09;;;22.10;50.81
67038;BME280;53940;53.204;6.590;2024-02-26T04:37:56;100396.97;;;22.09;50.90
67038;BME280;53940;53.204;6.590;2024-02-26T04:40:56;100409.38;;;22.10;50.85
67038;BME280;53940;53.204;6.590;2024-02-26T04:43:56;100402.34;;;22.09;50.97
67038;BME280;53940;53.204;6.590;2024-02-26T04:46:57;100410.38;;;22.09;50.93
67038;BME280;53940;53.204;6.590;2024-02-26T04:49:57;100411.38;;;22.08;50.86
67038;BME280;53940;53.204;6.590;2024-02-26T04:52:57;100407.84;;;22.07;50.90
67038;BME280;53940;53.204;6.590;2024-02-26T04:55:58;100413.22;;;22.07;50.84
67038;BME280;53940;53.204;6.590;2024-02-26T04:58:58;100417.72;;;22.07;50.77
67038;BME280;53940;53.204;6.590;2024-02-26T05:01:58;100424.09;;;22.06;51.11
67038;BME280;53940;53.204;6.590;2024-02-26T05:04:59;100432.16;;;22.06;50.97
67038;BME280;53940;53.204;6.590;2024-02-26T05:07:59;100433.00;;;22.06;50.88
67038;BME280;53940;53.204;6.590;2024-02-26T05:10:59;100427.78;;;22.05;50.97
67038;BME280;53940;53.204;6.590;2024-02-26T05:14:00;100433.16;;;22.05;51.03
67038;BME280;53940;53.204;6.590;2024-02-26T05:17:01;100437.69;;;22.04;51.32
67038;BME280;53940;53.204;6.590;2024-02-26T05:20:01;100444.91;;;22.04;51.18
67038;BME280;53940;53.204;6.590;2024-02-26T05:23:02;100445.75;;;22.04;51.28
67038;BME280;53940;53.204;6.590;2024-02-26T05:26:03;100444.03;;;22.03;51.46
67038;BME280;53940;53.204;6.590;2024-02-26T05:29:04;100455.78;;;22.02;51.26
67038;BME280;53940;53.204;6.590;2024-02-26T05:32:05;100453.09;;;22.02;51.29
67038;BME280;53940;53.204;6.590;2024-02-26T05:35:06;100450.56;;;22.01;51.19
67038;BME280;53940;53.204;6.590;2024-02-26T05:38:07;100454.97;;;22.02;51.28
67038;BME280;53940;53.204;6.590;2024-02-26T05:41:07;100461.28;;;22.01;51.46
67038;BME280;53940;53.204;6.590;2024-02-26T05:44:08;100464.97;;;22.00;51.17
67038;BME280;53940;53.204;6.590;2024-02-26T05:47:10;100468.69;;;21.99;51.22
67038;BME280;53940;53.204;6.590;2024-02-26T05:50:11;100471.34;;;21.99;51.37
67038;BME280;53940;53.204;6.590;2024-02-26T05:53:11;100477.72;;;21.98;51.36
67038;BME280;53940;53.204;6.590;2024-02-26T05:56:12;100477.72;;;21.98;51.34
67038;BME280;53940;53.204;6.590;2024-02-26T05:59:12;100476.03;;;21.97;51.26
67038;BME280;53940;53.204;6.590;2024-02-26T06:02:12;100484.09;;;21.97;51.55
67038;BME280;53940;53.204;6.590;2024-02-26T06:05:13;100484.25;;;21.95;51.31
67038;BME280;53940;53.204;6.590;2024-02-26T06:08:13;100494.81;;;21.97;51.48
67038;BME280;53940;53.204;6.590;2024-02-26T06:11:13;100494.13;;;21.94;51.45
67038;BME280;53940;53.204;6.590;2024-02-26T06:14:14;100497.66;;;21.95;51.24
67038;BME280;53940;53.204;6.590;2024-02-26T06:17:18;100500.50;;;21.93;51.55
67038;BME280;53940;53.204;6.590;2024-02-26T06:20:18;100502.34;;;21.93;51.48
67038;BME280;53940;53.204;6.590;2024-02-26T06:23:18;100502.50;;;21.91;51.63
67038;BME280;53940;53.204;6.590;2024-02-26T06:26:19;100506.88;;;21.92;51.41
67038;BME280;53940;53.204;6.590;2024-02-26T06:29:19;100506.88;;;21.92;51.71
67038;BME280;53940;53.204;6.590;2024-02-26T06:32:19;100514.22;;;21.90;51.69
67038;BME280;53940;53.204;6.590;2024-02-26T06:35:20;100515.91;;;21.91;51.73
67038;BME280;53940;53.204;6.590;2024-02-26T06:38:20;100521.44;;;21.90;51.79
67038;BME280;53940;53.204;6.590;2024-02-26T06:41:20;100524.97;;;21.90;51.83
67038;BME280;53940;53.204;6.590;2024-02-26T06:44:21;100532.31;;;21.88;51.65
67038;BME280;53940;53.204;6.590;2024-02-26T06:47:21;100533.31;;;21.87;51.60
67038;BME280;53940;53.204;6.590;2024-02-26T06:50:22;100532.47;;;21.87;51.50
67038;BME280;53940;53.204;6.590;2024-02-26T06:53:22;100536.00;;;21.87;51.52
67038;BME280;53940;53.204;6.590;2024-02-26T06:56:23;100534.31;;;21.86;51.66
67038;BME280;53940;53.204;6.590;2024-02-26T06:59:23;100545.03;;;21.86;51.82
67038;BME280;53940;53.204;6.590;2024-02-26T07:02:24;100550.41;;;21.86;51.84
67038;BME280;53940;53.204;6.590;2024-02-26T07:05:24;100547.88;;;21.85;51.60
67038;BME280;53940;53.204;6.590;2024-02-26T07:08:24;100546.19;;;21.84;51.66
67038;BME280;53940;53.204;6.590;2024-02-26T07:11:25;100548.88;;;21.84;51.77
67038;BME280;53940;53.204;6.590;2024-02-26T07:14:25;100556.91;;;21.84;51.60
67038;BME280;53940;53.204;6.590;2024-02-26T07:17:25;100565.13;;;21.82;51.71
67038;BME280;53940;53.204;6.590;2024-02-26T07:20:26;100573.16;;;21.82;51.76
67038;BME280;53940;53.204;6.590;2024-02-26T07:23:26;100574.16;;;21.81;51.92
67038;BME280;53940;53.204;6.590;2024-02-26T07:26:26;100579.53;;;21.81;52.05
67038;BME280;53940;53.204;6.590;2024-02-26T07:29:27;100580.38;;;21.81;51.97
67038;BME280;53940;53.204;6.590;2024-02-26T07:32:27;100584.88;;;21.81;52.28
67038;BME280;53940;53.204;6.590;2024-02-26T07:35:27;100583.22;;;21.80;52.20
67038;BME280;53940;53.204;6.590;2024-02-26T07:38:28;100596.63;;;21.80;52.17
67038;BME280;53940;53.204;6.590;2024-02-26T07:41:28;100595.63;;;21.81;52.12
67038;BME280;53940;53.204;6.590;2024-02-26T07:44:29;100596.63;;;21.80;52.07
67038;BME280;53940;53.204;6.590;2024-02-26T07:47:29;100600.16;;;21.80;51.84
67038;BME280;53940;53.204;6.590;2024-02-26T07:50:30;100599.31;;;21.80;52.04
67038;BME280;53940;53.204;6.590;2024-02-26T07:53:30;100611.72;;;21.81;52.04
67038;BME280;53940;53.204;6.590;2024-02-26T07:56:31;100614.41;;;21.81;52.13
67038;BME280;53940;53.204;6.590;2024-02-26T07:59:31;100617.06;;;21.81;51.70
67038;BME280;53940;53.204;6.590;2024-02-26T08:02:32;100627.81;;;21.81;51.67
67038;BME280;53940;53.204;6.590;2024-02-26T08:05:32;100626.97;;;21.80;51.81
67038;BME280;53940;53.204;6.590;2024-02-26T08:08:32;100616.41;;;21.79;51.82
67038;BME280;53940;53.204;6.590;2024-02-26T08:11:33;100620.75;;;21.80;51.87
67038;BME280;53940;53.204;6.590;2024-02-26T08:14:33;100624.44;;;21.79;52.06
67038;BME280;53940;53.204;6.590;2024-02-26T08:17:33;100627.81;;;21.81;52.20
67038;BME280;53940;53.204;6.590;2024-02-26T08:20:34;100627.81;;;21.81;52.19
67038;BME280;53940;53.204;6.590;2024-02-26T08:23:37;100619.75;;;21.81;52.17
67038;BME280;53940;53.204;6.590;2024-02-26T08:26:37;100620.47;;;21.83;52.18
67038;BME280;53940;53.204;6.590;2024-02-26T08:29:38;100618.75;;;21.82;52.20
67038;BME280;53940;53.204;6.590;2024-02-26T08:32:38;100625.84;;;21.83;52.44
67038;BME280;53940;53.204;6.590;2024-02-26T08:35:39;100627.53;;;21.84;52.27
67038;BME280;53940;53.204;6.590;2024-02-26T08:38:39;100638.25;;;21.84;52.35
67038;BME280;53940;53.204;6.590;2024-02-26T08:41:39;100650.66;;;21.85;52.38
67038;BME280;53940;53.204;6.590;2024-02-26T08:44:40;100655.03;;;21.86;52.22
67038;BME280;53940;53.204;6.590;2024-02-26T08:47:40;100667.28;;;21.89;52.31
67038;BME280;53940;53.204;6.590;2024-02-26T08:50:40;100668.16;;;21.89;52.03
67038;BME280;53940;53.204;6.590;2024-02-26T08:53:41;100674.34;;;21.90;52.24
67038;BME280;53940;53.204;6.590;2024-02-26T08:56:41;100669.84;;;21.90;52.07
67038;BME280;53940;53.204;6.590;2024-02-26T08:59:41;100674.19;;;21.91;52.22
67038;BME280;53940;53.204;6.590;2024-02-26T09:02:42;100671.50;;;21.91;51.97
67038;BME280;53940;53.204;6.590;2024-02-26T09:05:44;100673.19;;;21.92;52.14
67038;BME280;53940;53.204;6.590;2024-02-26T09:08:44;100682.09;;;21.93;52.15
67038;BME280;53940;53.204;6.590;2024-02-26T09:11:44;100685.63;;;21.93;51.92
67038;BME280;53940;53.204;6.590;2024-02-26T09:14:44;100680.25;;;21.93;52.21
67038;BME280;53940;53.204;6.590;2024-02-26T09:17:45;100690.97;;;21.93;51.90
67038;BME280;53940;53.204;6.590;2024-02-26T09:20:46;100690.97;;;21.93;52.13
67038;BME280;53940;53.204;6.590;2024-02-26T09:23:46;100696.34;;;21.93;52.14
67038;BME280;53940;53.204;6.590;2024-02-26T09:26:46;100693.66;;;21.93;52.27
67038;BME280;53940;53.204;6.590;2024-02-26T09:29:47;100704.41;;;21.93;52.27
67038;BME280;53940;53.204;6.590;2024-02-26T09:32:47;100706.06;;;21.94;52.30
67038;BME280;53940;53.204;6.590;2024-02-26T09:35:48;100707.06;;;21.93;52.18
67038;BME280;53940;53.204;6.590;2024-02-26T09:38:49;100708.75;;;21.94;52.27
67038;BME280;53940;53.204;6.590;2024-02-26T09:41:50;100714.13;;;21.94;52.37
67038;BME280;53940;53.204;6.590;2024-02-26T09:44:51;100725.84;;;21.93;52.25
67038;BME280;53940;53.204;6.590;2024-02-26T09:47:55;100724.03;;;21.94;52.10
67038;BME280;53940;53.204;6.590;2024-02-26T09:50:55;100732.22;;;21.92;52.30
67038;BME280;53940;53.204;6.590;2024-02-26T09:53:59;100739.28;;;21.93;52.07
67038;BME280;53940;53.204;6.590;2024-02-26T09:57:03;100739.28;;;21.93;52.18
67038;BME280;53940;53.204;6.590;2024-02-26T10:00:07;100738.44;;;21.93;52.22
67038;BME280;53940;53.204;6.590;2024-02-26T10:03:13;100744.63;;;21.93;52.13
67038;BME280;53940;53.204;6.590;2024-02-26T10:06:15;100748.31;;;21.92;51.97
67038;BME280;53940;53.204;6.590;2024-02-26T10:09:16;100754.53;;;21.93;51.97
67038;BME280;53940;53.204;6.590;2024-02-26T10:12:16;100757.22;;;21.93;52.25
67038;BME280;53940;53.204;6.590;2024-02-26T10:15:18;100764.41;;;21.92;52.06
67038;BME280;53940;53.204;6.590;2024-02-26T10:18:18;100766.09;;;21.93;51.98
67038;BME280;53940;53.204;6.590;2024-02-26T10:21:21;100764.41;;;21.92;52.11
67038;BME280;53940;53.204;6.590;2024-02-26T10:24:21;100769.78;;;21.92;51.93
67038;BME280;53940;53.204;6.590;2024-02-26T10:27:22;100774.28;;;21.92;51.99
67038;BME280;53940;53.204;6.590;2024-02-26T10:30:22;100777.84;;;21.92;52.06
67038;BME280;53940;53.204;6.590;2024-02-26T10:33:24;100793.94;;;21.92;52.13
67038;BME280;53940;53.204;6.590;2024-02-26T10:36:25;100787.88;;;21.90;52.35
67038;BME280;53940;53.204;6.590;2024-02-26T10:39:26;100791.56;;;21.89;52.16
67038;BME280;53940;53.204;6.590;2024-02-26T10:42:26;100803.97;;;21.90;52.12
67038;BME280;53940;53.204;6.590;2024-02-26T10:45:26;100800.44;;;21.90;52.09
67038;BME280;53940;53.204;6.590;2024-02-26T10:48:27;100808.47;;;21.90;52.13
67038;BME280;53940;53.204;6.590;2024-02-26T10:51:29;100816.53;;;21.90;52.00
67038;BME280;53940;53.204;6.590;2024-02-26T10:54:29;100803.25;;;21.88;52.04
67038;BME280;53940;53.204;6.590;2024-02-26T10:57:40;100813.31;;;21.86;52.15
67038;BME280;53940;53.204;6.590;2024-02-26T11:00:42;100817.66;;;21.87;52.05
67038;BME280;53940;53.204;6.590;2024-02-26T11:03:43;100816.00;;;21.86;52.30
67038;BME280;53940;53.204;6.590;2024-02-26T11:06:47;100819.34;;;21.88;51.93
67038;BME280;53940;53.204;6.590;2024-02-26T11:09:50;100821.34;;;21.86;52.34
67038;BME280;53940;53.204;6.590;2024-02-26T11:12:52;100829.41;;;21.86;51.97
67038;BME280;53940;53.204;6.590;2024-02-26T11:15:56;100832.78;;;21.88;52.11
67038;BME280;53940;53.204;6.590;2024-02-26T11:18:57;100825.72;;;21.87;52.32
67038;BME280;53940;53.204;6.590;2024-02-26T11:21:58;100843.50;;;21.88;52.01
67038;BME280;53940;53.204;6.590;2024-02-26T11:25:01;100849.72;;;21.89;52.07
67038;BME280;53940;53.204;6.590;2024-02-26T11:28:04;100855.09;;;21.89;52.41
67038;BME280;53940;53.204;6.590;2024-02-26T11:31:05;100850.59;;;21.89;52.14
67038;BME280;53940;53.204;6.590;2024-02-26T11:34:09;100854.94;;;21.90;52.35
67038;BME280;53940;53.204;6.590;2024-02-26T11:37:16;100855.94;;;21.89;52.34
67038;BME280;53940;53.204;6.590;2024-02-26T11:40:17;100860.31;;;21.90;52.28
67038;BME280;53940;53.204;6.590;2024-02-26T11:43:18;100865.69;;;21.90;51.98
67038;BME280;53940;53.204;6.590;2024-02-26T11:46:29;100872.06;;;21.89;51.80
67038;BME280;53940;53.204;6.590;2024-02-26T11:49:31;100866.69;;;21.89;52.10
67038;BME280;53940;53.204;6.590;2024-02-26T11:52:31;100863.81;;;21.91;51.78
67038;BME280;53940;53.204;6.590;2024-02-26T11:55:32;100864.69;;;21.91;51.62
67038;BME280;53940;53.204;6.590;2024-02-26T11:58:32;100868.38;;;21.90;51.50
67038;BME280;53940;53.204;6.590;2024-02-26T12:01:48;100864.00;;;21.89;51.11
67038;BME280;53940;53.204;6.590;2024-02-26T12:04:49;100873.72;;;21.90;51.12
67038;BME280;53940;53.204;6.590;2024-02-26T12:07:54;100868.50;;;21.89;51.35
67038;BME280;53940;53.204;6.590;2024-02-26T12:10:55;100864.97;;;21.88;51.22
67038;BME280;53940;53.204;6.590;2024-02-26T12:13:56;100865.81;;;21.89;51.52
67038;BME280;53940;53.204;6.590;2024-02-26T12:16:57;100870.34;;;21.88;51.59
67038;BME280;53940;53.204;6.590;2024-02-26T12:20:11;100866.09;;;21.86;51.48
67038;BME280;53940;53.204;6.590;2024-02-26T12:23:15;100865.28;;;21.85;51.38
67038;BME280;53940;53.204;6.590;2024-02-26T12:26:18;100865.28;;;21.85;51.71
67038;BME280;53940;53.204;6.590;2024-02-26T12:29:20;100868.97;;;21.84;51.50
67038;BME280;53940;53.204;6.590;2024-02-26T12:32:20;100874.31;;;21.84;51.42
67038;BME280;53940;53.204;6.590;2024-02-26T12:35:20;100879.69;;;21.84;51.20
67038;BME280;53940;53.204;6.590;2024-02-26T12:38:21;100883.38;;;21.83;51.55
67038;BME280;53940;53.204;6.590;2024-02-26T12:41:22;100885.31;;;21.81;51.54
67038;BME280;53940;53.204;6.590;2024-02-26T12:44:26;100884.50;;;21.80;51.71
67038;BME280;53940;53.204;6.590;2024-02-26T12:47:26;100889.88;;;21.80;51.55
67038;BME280;53940;53.204;6.590;2024-02-26T12:50:26;100897.06;;;21.80;51.75
67038;BME280;53940;53.204;6.590;2024-02-26T12:53:27;100896.38;;;21.78;51.71
67038;BME280;53940;53.204;6.590;2024-02-26T12:56:27;100891.81;;;21.78;51.50
67038;BME280;53940;53.204;6.590;2024-02-26T12:59:29;100906.09;;;21.79;51.50
67038;BME280;53940;53.204;6.590;2024-02-26T13:02:31;100896.38;;;21.78;51.59
67038;BME280;53940;53.204;6.590;2024-02-26T13:05:32;100910.78;;;21.77;51.77
67038;BME280;53940;53.204;6.590;2024-02-26T13:08:33;100901.00;;;21.76;51.68
67038;BME280;53940;53.204;6.590;2024-02-26T13:11:33;100909.91;;;21.76;51.63
67038;BME280;53940;53.204;6.590;2024-02-26T13:14:34;100913.47;;;21.77;51.79
67038;BME280;53940;53.204;6.590;2024-02-26T13:17:34;100919.78;;;21.76;51.77
67038;BME280;53940;53.204;6.590;2024-02-26T13:20:35;100928.81;;;21.75;51.64
67038;BME280;53940;53.204;6.590;2024-02-26T13:23:37;100935.06;;;21.75;51.57
67038;BME280;53940;53.204;6.590;2024-02-26T13:26:39;100935.19;;;21.74;51.24
67038;BME280;53940;53.204;6.590;2024-02-26T13:29:39;100940.56;;;21.74;51.26
67038;BME280;53940;53.204;6.590;2024-02-26T13:32:40;100944.09;;;21.74;51.38
67038;BME280;53940;53.204;6.590;2024-02-26T13:35:41;100948.59;;;21.74;51.34
67038;BME280;53940;53.204;6.590;2024-02-26T13:38:51;100945.91;;;21.74;51.57
67038;BME280;53940;53.204;6.590;2024-02-26T13:41:52;100948.59;;;21.74;51.55
67038;BME280;53940;53.204;6.590;2024-02-26T13:44:53;100956.66;;;21.74;51.77
67038;BME280;53940;53.204;6.590;2024-02-26T13:47:53;100962.00;;;21.74;51.84
67038;BME280;53940;53.204;6.590;2024-02-26T13:50:54;100972.75;;;21.74;51.95
67038;BME280;53940;53.204;6.590;2024-02-26T13:53:54;100971.75;;;21.75;51.90
67038;BME280;53940;53.204;6.590;2024-02-26T13:56:54;100976.13;;;21.76;51.74
67038;BME280;53940;53.204;6.590;2024-02-26T13:59:55;100987.72;;;21.76;51.86
67038;BME280;53940;53.204;6.590;2024-02-26T14:02:55;100981.47;;;21.76;51.65
67038;BME280;53940;53.204;6.590;2024-02-26T14:05:56;100982.22;;;21.78;51.66
67038;BME280;53940;53.204;6.590;2024-02-26T14:08:57;100987.56;;;21.78;51.64
67038;BME280;53940;53.204;6.590;2024-02-26T14:11:58;100986.56;;;21.79;51.60
67038;BME280;53940;53.204;6.590;2024-02-26T14:14:59;100992.63;;;21.81;51.58
67038;BME280;53940;53.204;6.590;2024-02-26T14:18:00;100987.25;;;21.81;51.70
67038;BME280;53940;53.204;6.590;2024-02-26T14:21:03;100988.97;;;21.82;51.44
67038;BME280;53940;53.204;6.590;2024-02-26T14:24:04;100992.63;;;21.81;51.64
67038;BME280;53940;53.204;6.590;2024-02-26T14:27:04;100994.31;;;21.82;51.42
67038;BME280;53940;53.204;6.590;2024-02-26T14:30:05;100997.16;;;21.80;51.42
67038;BME280;53940;53.204;6.590;2024-02-26T14:33:06;100998.31;;;21.78;51.40
67038;BME280;53940;53.204;6.590;2024-02-26T14:36:07;101000.97;;;21.78;51.43
67038;BME280;53940;53.204;6.590;2024-02-26T14:39:07;101011.53;;;21.79;51.68
67038;BME280;53940;53.204;6.590;2024-02-26T14:42:11;101005.34;;;21.79;51.39
67038;BME280;53940;53.204;6.590;2024-02-26T14:45:11;101018.75;;;21.79;51.31
67038;BME280;53940;53.204;6.590;2024-02-26T14:48:12;101023.13;;;21.80;51.68
67038;BME280;53940;53.204;6.590;2024-02-26T14:51:13;101019.47;;;21.81;51.31
67038;BME280;53940;53.204;6.590;2024-02-26T14:54:13;101024.81;;;21.81;51.42
67038;BME280;53940;53.204;6.590;2024-02-26T14:57:14;101023.13;;;21.80;51.22
67038;BME280;53940;53.204;6.590;2024-02-26T15:00:14;101020.59;;;21.78;51.49
67038;BME280;53940;53.204;6.590;2024-02-26T15:03:15;101030.50;;;21.78;51.48
67038;BME280;53940;53.204;6.590;2024-02-26T15:06:15;101028.63;;;21.78;51.22
67038;BME280;53940;53.204;6.590;2024-02-26T15:09:15;101025.13;;;21.78;51.37
67038;BME280;53940;53.204;6.590;2024-02-26T15:12:15;101030.50;;;21.78;51.30
67038;BME280;53940;53.204;6.590;2024-02-26T15:15:17;101038.53;;;21.78;51.80
67038;BME280;53940;53.204;6.590;2024-02-26T15:18:18;101034.16;;;21.77;51.38
67038;BME280;53940;53.204;6.590;2024-02-26T15:21:18;101052.09;;;21.76;51.69
67038;BME280;53940;53.204;6.590;2024-02-26T15:24:19;101050.25;;;21.77;51.65
67038;BME280;53940;53.204;6.590;2024-02-26T15:27:19;101058.31;;;21.77;51.58
67038;BME280;53940;53.204;6.590;2024-02-26T15:30:20;101055.63;;;21.77;51.59
67038;BME280;53940;53.204;6.590;2024-02-26T15:33:20;101061.81;;;21.77;51.62
67038;BME280;53940;53.204;6.590;2024-02-26T15:36:21;101075.09;;;21.79;51.52
67038;BME280;53940;53.204;6.590;2024-02-26T15:39:21;101078.78;;;21.78;51.66
67038;BME280;53940;53.204;6.590;2024-02-26T15:42:22;101073.41;;;21.78;51.89
67038;BME280;53940;53.204;6.590;2024-02-26T15:45:23;101080.72;;;21.76;52.04